Terminal Aerodrome Forecast
Issued by NWS Albany, NY

Home | Current Version | Previous Version | Text Only | Print | Product List | Glossary On
Versions: 1 2 3 4 5 6 7 8 9 10 11 12 13 14 15 16 17 18 19
000
FTUS41 KALY 261100
TAFGFL
TAF
KGFL 261138Z 2612/2712 00000KT P6SM SCT150 BKN250
      TEMPO 2612/2613 4SM BR
     FM261300 18004KT P6SM SCT250
     FM261600 20008KT P6SM FEW040 SCT250
     FM262100 21007KT P6SM SCT040 SCT120 BKN250
     FM270300 VRB03KT P6SM OVC120
     FM270900 VRB03KT 3SM SHRA OVC025=

USA.gov is the U.S. government's official web portal to all federal, state and local government web resources and services.